createdAt,value
2018-01-28T00:01:56.851Z,7.50
2018-01-28T00:04:25.061Z,7.50
2018-01-28T00:06:53.303Z,7.50
2018-01-28T00:09:20.766Z,7.50
2018-01-28T00:11:48.251Z,7.50
2018-01-28T00:14:16.514Z,7.50
2018-01-28T00:16:43.964Z,7.50
2018-01-28T00:19:11.425Z,7.50
2018-01-28T00:21:38.895Z,7.50
2018-01-28T00:24:07.117Z,7.50
2018-01-28T00:26:34.584Z,7.50
2018-01-28T00:29:02.066Z,7.50
2018-01-28T00:31:29.517Z,7.50
2018-01-28T00:33:57.369Z,7.50
2018-01-28T00:36:24.811Z,7.50
2018-01-28T00:38:52.259Z,7.40
2018-01-28T00:41:19.730Z,7.30
2018-01-28T00:43:47.198Z,7.30
2018-01-28T00:46:14.645Z,7.30
2018-01-28T00:48:42.506Z,7.10
2018-01-28T00:51:09.967Z,7.60
2018-01-28T00:53:37.437Z,7.30
2018-01-28T00:56:04.891Z,7.30
2018-01-28T00:58:32.367Z,7.40
2018-01-28T01:00:59.816Z,7.30
2018-01-28T01:03:27.323Z,7.30
2018-01-28T01:05:54.765Z,7.30
2018-01-28T01:08:22.243Z,7.30
2018-01-28T01:10:49.693Z,7.30
2018-01-28T01:13:17.140Z,7.30
2018-01-28T01:15:44.603Z,7.30
2018-01-28T01:18:12.065Z,7.20
2018-01-28T01:20:39.516Z,7.20
2018-01-28T01:23:06.981Z,7.30
2018-01-28T01:25:34.441Z,7.30
2018-01-28T01:28:01.906Z,7.30
2018-01-28T01:30:29.385Z,7.30
2018-01-28T01:32:56.847Z,7.30
2018-01-28T01:35:24.300Z,7.30
2018-01-28T01:37:51.764Z,7.10
2018-01-28T01:40:19.286Z,7.20
2018-01-28T01:42:46.704Z,7.90
2018-01-28T01:45:15.845Z,7.10
2018-01-28T01:47:44.166Z,7.10
2018-01-28T01:50:12.399Z,7.20
2018-01-28T01:52:39.853Z,7.10
2018-01-28T01:55:07.322Z,7.10
2018-01-28T01:57:34.790Z,7.00
2018-01-28T02:00:02.258Z,7.10
2018-01-28T02:02:29.717Z,7.00
2018-01-28T02:04:57.198Z,7.00
2018-01-28T02:07:25.416Z,7.10
2018-01-28T02:09:52.860Z,7.10
2018-01-28T02:12:20.334Z,7.10
2018-01-28T02:14:47.790Z,7.20
2018-01-28T02:17:15.248Z,7.00
2018-01-28T02:19:42.706Z,7.10
2018-01-28T02:22:10.165Z,7.10
2018-01-28T02:24:37.635Z,7.00
2018-01-28T02:27:05.085Z,7.00
2018-01-28T02:29:32.546Z,6.80
2018-01-28T02:32:00.035Z,6.80
2018-01-28T02:34:27.456Z,6.90
2018-01-28T02:36:54.924Z,6.70
2018-01-28T02:39:22.406Z,6.60
2018-01-28T02:41:50.636Z,6.40
2018-01-28T02:44:18.102Z,6.40
2018-01-28T02:46:45.562Z,6.40
2018-01-28T02:49:13.803Z,6.50
2018-01-28T02:51:41.258Z,6.40
2018-01-28T02:54:08.716Z,6.40
2018-01-28T02:56:36.180Z,6.40
2018-01-28T02:59:03.648Z,6.30
2018-01-28T03:01:31.096Z,6.30
2018-01-28T03:03:58.559Z,6.10
2018-01-28T03:06:26.004Z,6.10
2018-01-28T03:08:53.458Z,6.10
2018-01-28T03:11:20.949Z,6.10
2018-01-28T03:13:48.372Z,6.00
2018-01-28T03:16:15.842Z,6.10
2018-01-28T03:18:43.294Z,6.10
2018-01-28T03:21:10.770Z,6.00
2018-01-28T03:23:38.219Z,5.90
2018-01-28T03:26:05.707Z,5.80
2018-01-28T03:28:33.940Z,5.60
2018-01-28T03:31:01.441Z,5.50
2018-01-28T03:33:28.905Z,5.00
2018-01-28T03:35:57.117Z,5.20
2018-01-28T03:38:24.585Z,5.20
2018-01-28T03:40:52.046Z,5.10
2018-01-28T03:43:19.534Z,5.20
2018-01-28T03:45:47.619Z,5.20
2018-01-28T03:48:15.848Z,5.30
2018-01-28T03:50:43.310Z,5.30
2018-01-28T03:53:10.773Z,5.30
2018-01-28T03:55:38.904Z,5.20
2018-01-28T03:58:06.368Z,5.20
2018-01-28T04:00:33.829Z,5.20
2018-01-28T04:03:01.295Z,5.20
2018-01-28T04:05:28.765Z,5.20
2018-01-28T04:07:56.246Z,5.20
2018-01-28T04:10:23.700Z,5.20
2018-01-28T04:12:51.171Z,5.20
2018-01-28T04:15:18.685Z,5.00
2018-01-28T04:17:46.162Z,5.00
2018-01-28T04:20:13.707Z,4.90
2018-01-28T04:22:41.178Z,4.90
2018-01-28T04:25:08.642Z,4.80
2018-01-28T04:27:36.101Z,4.60
2018-01-28T04:30:03.576Z,4.70
2018-01-28T04:32:31.438Z,4.80
2018-01-28T04:34:59.660Z,4.60
2018-01-28T04:37:27.132Z,4.70
2018-01-28T04:39:54.602Z,4.70
2018-01-28T04:42:22.066Z,4.50
2018-01-28T04:44:49.512Z,4.60
2018-01-28T04:47:16.982Z,4.60
2018-01-28T04:49:44.434Z,4.50
2018-01-28T04:52:11.876Z,4.50
2018-01-28T04:54:39.349Z,4.40
2018-01-28T04:57:07.600Z,4.50
2018-01-28T04:59:35.054Z,4.40
2018-01-28T05:02:07.172Z,4.50
2018-01-28T05:04:35.405Z,4.50
2018-01-28T05:07:02.852Z,4.40
2018-01-28T05:09:30.317Z,4.50
2018-01-28T05:11:57.779Z,4.70
2018-01-28T05:14:25.569Z,4.60
2018-01-28T05:16:53.017Z,4.50
2018-01-28T05:19:20.490Z,4.60
2018-01-28T05:21:48.712Z,4.50
2018-01-28T05:24:16.491Z,4.40
2018-01-28T05:26:43.953Z,4.60
2018-01-28T05:29:11.633Z,4.60
2018-01-28T05:31:39.090Z,4.60
2018-01-28T05:34:06.563Z,4.30
2018-01-28T05:36:34.404Z,4.50
2018-01-28T05:39:01.873Z,4.40
2018-01-28T05:41:29.322Z,4.40
2018-01-28T05:43:56.798Z,4.40
2018-01-28T05:46:25.016Z,4.40
2018-01-28T05:48:52.495Z,4.40
2018-01-28T05:51:20.042Z,4.40
2018-01-28T05:53:48.362Z,4.10
2018-01-28T05:56:16.676Z,4.10
2018-01-28T05:58:44.393Z,4.10
2018-01-28T06:01:11.950Z,4.10
2018-01-28T06:03:39.535Z,4.00
2018-01-28T06:06:07.090Z,3.90
2018-01-28T06:08:35.399Z,3.90
2018-01-28T06:11:02.947Z,3.80
2018-01-28T06:13:30.499Z,3.90
2018-01-28T06:15:58.055Z,3.90
2018-01-28T06:18:25.573Z,3.90
2018-01-28T06:20:53.130Z,4.00
2018-01-28T06:23:21.432Z,4.20
2018-01-28T06:25:48.998Z,4.10
2018-01-28T06:28:16.540Z,4.40
2018-01-28T06:30:44.889Z,4.20
2018-01-28T06:33:12.425Z,4.10
2018-01-28T06:35:40.037Z,4.30
2018-01-28T06:38:07.555Z,4.30
2018-01-28T06:40:35.123Z,4.30
2018-01-28T06:43:02.640Z,4.30
2018-01-28T06:45:30.228Z,4.20
2018-01-28T06:47:57.794Z,4.20
2018-01-28T06:50:25.318Z,4.20
2018-01-28T06:52:52.874Z,4.30
2018-01-28T06:55:20.438Z,4.40
2018-01-28T06:57:47.986Z,4.30
2018-01-28T07:00:15.529Z,4.40
2018-01-28T07:02:43.093Z,4.40
2018-01-28T07:05:11.397Z,4.50
2018-01-28T07:07:39.745Z,4.50
2018-01-28T07:10:07.305Z,4.50
2018-01-28T07:12:34.865Z,4.50
2018-01-28T07:15:02.409Z,4.50
2018-01-28T07:17:30.758Z,4.60
2018-01-28T07:19:58.293Z,4.60
2018-01-28T07:22:26.598Z,4.80
2018-01-28T07:24:54.200Z,4.50
2018-01-28T07:27:21.786Z,4.90
2018-01-28T07:29:49.317Z,4.80
2018-01-28T07:32:17.630Z,4.80
2018-01-28T07:34:45.182Z,4.50
2018-01-28T07:37:12.727Z,4.90
2018-01-28T07:39:40.260Z,4.80
2018-01-28T07:42:07.832Z,4.80
2018-01-28T07:44:35.306Z,4.90
2018-01-28T07:47:02.808Z,5.00
2018-01-28T07:49:30.314Z,5.10
2018-01-28T07:51:57.814Z,5.10
2018-01-28T07:54:25.315Z,5.30
2018-01-28T07:56:53.564Z,5.40
2018-01-28T07:59:21.036Z,5.30
2018-01-28T08:01:48.525Z,5.40
2018-01-28T08:04:15.991Z,5.40
2018-01-28T08:06:43.453Z,5.50
2018-01-28T08:09:11.691Z,5.50
2018-01-28T08:11:49.133Z,5.60
2018-01-28T08:14:21.564Z,5.70
2018-01-28T08:16:49.783Z,5.70
2018-01-28T08:19:17.244Z,5.60
2018-01-28T08:21:44.697Z,5.70
2018-01-28T08:24:12.183Z,5.70
2018-01-28T08:26:40.099Z,5.60
2018-01-28T08:29:17.491Z,5.80
2018-01-28T08:31:44.936Z,5.60
2018-01-28T08:34:12.396Z,5.70
2018-01-28T08:36:39.872Z,5.70
2018-01-28T08:39:07.337Z,5.80
2018-01-28T08:41:34.805Z,6.00
2018-01-28T08:44:02.254Z,6.10
2018-01-28T08:46:29.722Z,6.10
2018-01-28T08:48:57.190Z,6.10
2018-01-28T08:51:24.654Z,6.10
2018-01-28T08:53:52.102Z,6.10
2018-01-28T08:56:19.562Z,6.10
2018-01-28T08:58:47.018Z,6.00
2018-01-28T09:01:14.486Z,6.20
2018-01-28T09:03:41.946Z,6.30
2018-01-28T09:06:10.174Z,6.40
2018-01-28T09:08:37.624Z,6.40
2018-01-28T09:11:05.094Z,6.60
2018-01-28T09:13:33.315Z,6.60
2018-01-28T09:16:01.559Z,6.70
2018-01-28T09:18:29.016Z,6.80
2018-01-28T09:20:56.893Z,6.90
2018-01-28T09:23:24.344Z,6.80
2018-01-28T09:25:51.814Z,7.10
2018-01-28T09:28:19.274Z,7.20
2018-01-28T09:30:46.709Z,7.30
2018-01-28T09:33:14.165Z,7.40
2018-01-28T09:35:41.613Z,7.50
2018-01-28T09:38:09.056Z,7.60
2018-01-28T09:40:36.516Z,7.70
2018-01-28T09:43:03.966Z,7.90
2018-01-28T09:45:31.419Z,7.90
2018-01-28T09:47:58.875Z,7.90
2018-01-28T09:50:26.333Z,8.00
2018-01-28T09:52:53.799Z,7.90
2018-01-28T09:55:21.236Z,7.90
2018-01-28T09:57:48.699Z,8.00
2018-01-28T10:00:16.166Z,8.10
2018-01-28T10:02:43.634Z,8.10
2018-01-28T10:05:11.118Z,8.20
2018-01-28T10:07:38.566Z,8.20
2018-01-28T10:10:06.009Z,8.30
2018-01-28T10:12:33.470Z,8.40
2018-01-28T10:15:01.331Z,8.40
2018-01-28T10:17:29.195Z,8.60
2018-01-28T10:19:57.049Z,8.50
2018-01-28T10:22:24.805Z,8.70
2018-01-28T10:24:52.301Z,8.80
2018-01-28T10:27:19.751Z,8.80
2018-01-28T10:29:47.988Z,8.90
2018-01-28T10:32:15.456Z,8.90
2018-01-28T10:34:42.906Z,9.00
2018-01-28T10:37:10.440Z,9.00
2018-01-28T10:39:37.880Z,9.00
2018-01-28T10:42:06.111Z,9.20
2018-01-28T10:44:33.579Z,9.10
2018-01-28T10:47:04.583Z,9.30
2018-01-28T10:49:32.080Z,9.40
2018-01-28T10:51:59.540Z,9.40
2018-01-28T10:54:26.982Z,9.40
2018-01-28T10:56:54.436Z,9.60
2018-01-28T10:59:21.898Z,9.60
2018-01-28T11:01:49.375Z,9.70
2018-01-28T11:04:16.843Z,9.70
2018-01-28T11:06:45.669Z,9.90
2018-01-28T11:09:13.116Z,9.90
2018-01-28T11:11:40.576Z,10.00
2018-01-28T11:14:08.046Z,10.00
2018-01-28T11:16:35.498Z,10.10
2018-01-28T11:19:02.997Z,10.20
2018-01-28T11:21:30.456Z,10.30
2018-01-28T11:23:57.904Z,10.40
2018-01-28T11:26:25.411Z,10.50
2018-01-28T11:28:53.622Z,10.60
2018-01-28T11:31:21.069Z,10.50
2018-01-28T11:33:48.530Z,10.60
2018-01-28T11:36:15.977Z,10.80
2018-01-28T11:38:43.497Z,10.90
2018-01-28T11:41:11.710Z,11.00
2018-01-28T11:43:39.216Z,10.90
2018-01-28T11:46:06.695Z,11.00
2018-01-28T11:48:34.915Z,10.90
2018-01-28T11:51:02.374Z,10.80
2018-01-28T11:53:29.853Z,10.90
2018-01-28T11:55:57.330Z,11.00
2018-01-28T11:58:25.550Z,10.90
2018-01-28T12:00:53.023Z,10.80
2018-01-28T12:03:20.483Z,10.80
2018-01-28T12:05:47.976Z,10.90
2018-01-28T12:08:16.185Z,11.00
2018-01-28T12:10:43.639Z,11.30
2018-01-28T12:13:11.110Z,11.00
2018-01-28T12:15:38.573Z,11.00
2018-01-28T12:18:06.019Z,11.00
2018-01-28T12:20:33.482Z,11.10
2018-01-28T12:23:00.937Z,11.20
2018-01-28T12:25:28.393Z,11.20
2018-01-28T12:27:55.865Z,11.30
2018-01-28T12:30:23.331Z,11.30
2018-01-28T12:32:50.796Z,11.40
2018-01-28T12:35:18.252Z,11.50
2018-01-28T12:37:45.708Z,11.50
2018-01-28T12:40:13.160Z,11.70
2018-01-28T12:42:40.631Z,11.70
2018-01-28T12:45:08.076Z,11.80
2018-01-28T12:47:35.591Z,11.90
2018-01-28T12:50:03.038Z,12.00
2018-01-28T12:52:30.534Z,12.10
2018-01-28T12:54:57.977Z,12.00
2018-01-28T12:57:25.472Z,11.90
2018-01-28T12:59:52.930Z,12.10
2018-01-28T13:02:20.428Z,12.00
2018-01-28T13:04:48.278Z,11.70
2018-01-28T13:07:16.487Z,12.10
2018-01-28T13:09:43.994Z,12.00
2018-01-28T13:12:11.474Z,12.10
2018-01-28T13:14:38.926Z,12.20
2018-01-28T13:17:06.435Z,12.10
2018-01-28T13:19:33.926Z,12.20
2018-01-28T13:22:02.193Z,12.20
2018-01-28T13:24:29.700Z,12.10
2018-01-28T13:26:57.163Z,12.20
2018-01-28T13:29:24.646Z,12.20
2018-01-28T13:31:52.112Z,12.20
2018-01-28T13:34:19.562Z,12.30
2018-01-28T13:36:47.063Z,12.20
2018-01-28T13:39:14.534Z,12.20
2018-01-28T13:41:42.071Z,12.10
2018-01-28T13:44:10.323Z,12.30
2018-01-28T13:46:37.755Z,12.20
2018-01-28T13:49:05.226Z,12.10
2018-01-28T13:51:32.681Z,12.10
2018-01-28T13:54:00.133Z,12.10
2018-01-28T13:56:27.640Z,12.20
2018-01-28T13:58:55.132Z,12.30
2018-01-28T14:01:22.589Z,12.40
2018-01-28T14:03:50.089Z,12.40
2018-01-28T14:06:18.387Z,12.50
2018-01-28T14:08:45.835Z,12.40
2018-01-28T14:11:13.342Z,12.40
2018-01-28T14:13:40.785Z,12.60
2018-01-28T14:16:08.256Z,12.60
2018-01-28T14:18:35.709Z,12.70
2018-01-28T14:21:03.170Z,12.80
2018-01-28T14:23:30.664Z,12.80
2018-01-28T14:25:58.933Z,12.80
2018-01-28T14:28:26.387Z,12.70
2018-01-28T14:30:54.622Z,12.90
2018-01-28T14:33:22.081Z,12.80
2018-01-28T14:35:49.536Z,12.80
2018-01-28T14:38:16.983Z,12.80
2018-01-28T14:40:44.444Z,12.80
2018-01-28T14:43:11.903Z,12.70
2018-01-28T14:45:39.409Z,12.70
2018-01-28T14:48:07.612Z,12.70
2018-01-28T14:50:35.068Z,12.60
2018-01-28T14:53:02.517Z,12.70
2018-01-28T14:55:29.996Z,12.70
2018-01-28T14:57:57.500Z,12.60
2018-01-28T15:00:25.052Z,12.60
2018-01-28T15:02:52.615Z,12.60
2018-01-28T15:05:20.839Z,12.60
2018-01-28T15:07:48.359Z,12.60
2018-01-28T15:10:16.562Z,12.60
2018-01-28T15:12:44.842Z,12.70
2018-01-28T15:15:12.417Z,12.70
2018-01-28T15:17:39.881Z,12.80
2018-01-28T15:20:07.380Z,13.10
2018-01-28T15:22:34.905Z,12.70
2018-01-28T15:25:03.119Z,12.70
2018-01-28T15:27:31.389Z,12.70
2018-01-28T15:29:59.660Z,12.60
2018-01-28T15:32:28.208Z,12.60
2018-01-28T15:34:55.718Z,12.50
2018-01-28T15:37:23.269Z,12.50
2018-01-28T15:39:50.785Z,12.50
2018-01-28T15:42:18.364Z,12.50
2018-01-28T15:44:46.615Z,12.40
2018-01-28T15:47:14.066Z,12.40
2018-01-28T15:49:41.525Z,12.40
2018-01-28T15:52:09.046Z,12.40
2018-01-28T15:54:36.502Z,12.40
2018-01-28T15:57:03.991Z,12.90
2018-01-28T15:59:31.430Z,12.00
2018-01-28T16:01:58.933Z,12.30
2018-01-28T16:04:26.815Z,12.30
2018-01-28T16:06:54.682Z,12.30
2018-01-28T16:09:22.183Z,12.50
2018-01-28T16:11:50.030Z,12.10
2018-01-28T16:14:17.543Z,12.30
2018-01-28T16:16:45.022Z,12.40
2018-01-28T16:19:12.810Z,12.40
2018-01-28T16:21:40.288Z,12.30
2018-01-28T16:24:07.734Z,12.30
2018-01-28T16:26:35.194Z,12.40
2018-01-28T16:29:02.636Z,12.40
2018-01-28T16:31:30.167Z,12.30
2018-01-28T16:33:57.668Z,12.30
2018-01-28T16:36:25.100Z,12.30
2018-01-28T16:38:52.553Z,12.20
2018-01-28T16:41:20.823Z,12.10
2018-01-28T16:43:49.070Z,12.10
2018-01-28T16:46:16.513Z,12.00
2018-01-28T16:48:44.024Z,12.00
2018-01-28T16:51:12.246Z,11.90
2018-01-28T16:53:39.731Z,11.90
2018-01-28T16:56:07.225Z,11.90
2018-01-28T16:58:34.710Z,12.00
2018-01-28T17:01:02.922Z,11.90
2018-01-28T17:03:30.430Z,11.90
2018-01-28T17:05:57.900Z,12.00
2018-01-28T17:08:25.387Z,11.90
2018-01-28T17:10:53.603Z,11.80
2018-01-28T17:13:21.053Z,11.80
2018-01-28T17:15:48.542Z,11.80
2018-01-28T17:18:15.979Z,11.80
2018-01-28T17:20:43.483Z,11.70
2018-01-28T17:23:10.967Z,11.70
2018-01-28T17:25:39.176Z,11.60
2018-01-28T17:28:06.685Z,11.50
2018-01-28T17:30:34.179Z,11.50
2018-01-28T17:33:01.627Z,11.40
2018-01-28T17:35:34.897Z,11.30
2018-01-28T17:38:02.326Z,11.40
2018-01-28T17:40:29.772Z,11.40
2018-01-28T17:42:57.282Z,11.50
2018-01-28T17:45:25.600Z,11.50
2018-01-28T17:47:53.110Z,11.50
2018-01-28T17:50:21.366Z,11.60
2018-01-28T17:52:48.805Z,11.50
2018-01-28T17:55:16.349Z,11.60
2018-01-28T17:57:43.776Z,11.60
2018-01-28T18:00:11.234Z,11.70
2018-01-28T18:02:38.728Z,11.30
2018-01-28T18:05:07.121Z,11.40
2018-01-28T18:07:34.585Z,11.60
2018-01-28T18:10:02.033Z,11.60
2018-01-28T18:12:29.881Z,11.60
2018-01-28T18:14:57.376Z,11.60
2018-01-28T18:17:25.649Z,11.60
2018-01-28T18:19:53.162Z,11.60
2018-01-28T18:22:20.665Z,11.60
2018-01-28T18:24:48.115Z,11.60
2018-01-28T18:27:15.578Z,11.60
2018-01-28T18:29:43.794Z,11.60
2018-01-28T18:32:11.495Z,11.60
2018-01-28T18:34:39.000Z,11.50
2018-01-28T18:37:07.270Z,11.50
2018-01-28T18:39:35.521Z,11.40
2018-01-28T18:42:03.009Z,11.40
2018-01-28T18:44:30.500Z,11.40
2018-01-28T18:46:57.944Z,11.40
2018-01-28T18:49:25.394Z,11.30
2018-01-28T18:51:53.260Z,11.40
2018-01-28T18:54:20.789Z,11.30
2018-01-28T18:56:49.055Z,11.30
2018-01-28T18:59:16.552Z,11.20
2018-01-28T19:01:44.049Z,11.30
2018-01-28T19:04:11.504Z,11.10
2018-01-28T19:06:39.047Z,11.20
2018-01-28T19:09:06.582Z,11.10
2018-01-28T19:11:34.780Z,11.10
2018-01-28T19:14:02.386Z,11.30
2018-01-28T19:16:29.871Z,9.50
2018-01-28T19:18:57.324Z,11.00
2018-01-28T19:21:24.766Z,11.10
2018-01-28T19:23:52.227Z,11.10
2018-01-28T19:26:19.724Z,11.10
2018-01-28T19:28:47.225Z,11.10
2018-01-28T19:31:15.485Z,11.10
2018-01-28T19:33:42.995Z,11.10
2018-01-28T19:36:10.491Z,11.00
2018-01-28T19:38:37.995Z,11.00
2018-01-28T19:41:05.493Z,11.00
2018-01-28T19:43:32.951Z,11.00
2018-01-28T19:46:00.445Z,11.10
2018-01-28T19:48:27.917Z,11.20
2018-01-28T19:50:56.195Z,11.20
2018-01-28T19:53:23.697Z,11.20
2018-01-28T19:55:51.181Z,11.30
2018-01-28T19:58:18.629Z,11.40
2018-01-28T20:00:46.811Z,11.30
2018-01-28T20:03:14.374Z,11.20
2018-01-28T20:05:41.861Z,11.10
2018-01-28T20:08:09.360Z,11.10
2018-01-28T20:10:36.859Z,11.50
2018-01-28T20:13:04.704Z,11.10
2018-01-28T20:15:32.540Z,11.20
2018-01-28T20:18:00.050Z,11.10
2018-01-28T20:20:28.328Z,11.20
2018-01-28T20:22:57.262Z,11.10
2018-01-28T20:25:24.914Z,11.10
2018-01-28T20:27:52.365Z,10.90
2018-01-28T20:30:19.880Z,10.90
2018-01-28T20:32:47.364Z,10.90
2018-01-28T20:35:14.873Z,10.90
2018-01-28T20:37:42.320Z,10.70
2018-01-28T20:40:09.830Z,10.70
2018-01-28T20:42:37.341Z,10.60
2018-01-28T20:45:04.784Z,10.60
2018-01-28T20:47:32.298Z,10.60
2018-01-28T20:49:59.799Z,10.50
2018-01-28T20:52:27.281Z,10.40
2018-01-28T20:54:54.766Z,10.40
2018-01-28T20:57:23.221Z,10.40
2018-01-28T20:59:50.704Z,10.40
2018-01-28T21:02:18.965Z,10.30
2018-01-28T21:04:46.438Z,10.10
2018-01-28T21:07:13.947Z,10.40
2018-01-28T21:09:41.389Z,10.10
2018-01-28T21:12:09.653Z,10.10
2018-01-28T21:14:37.567Z,10.00
2018-01-28T21:17:05.053Z,10.00
2018-01-28T21:19:33.269Z,9.90
2018-01-28T21:22:00.778Z,9.90
2018-01-28T21:24:29.051Z,9.80
2018-01-28T21:26:57.313Z,9.80
2018-01-28T21:29:24.817Z,9.80
2018-01-28T21:31:52.308Z,9.70
2018-01-28T21:34:19.770Z,9.40
2018-01-28T21:36:47.276Z,9.30
2018-01-28T21:39:14.777Z,9.10
2018-01-28T21:41:42.222Z,8.90
2018-01-28T21:44:09.746Z,8.70
2018-01-28T21:46:37.234Z,8.50
2018-01-28T21:49:04.745Z,8.40
2018-01-28T21:51:33.006Z,8.40
2018-01-28T21:54:00.501Z,8.30
2018-01-28T21:56:27.986Z,8.20
2018-01-28T21:58:55.461Z,8.00
2018-01-28T22:01:22.968Z,7.80
2018-01-28T22:03:50.404Z,7.50
2018-01-28T22:06:18.682Z,7.40
2018-01-28T22:08:47.838Z,7.50
2018-01-28T22:11:15.346Z,7.10
2018-01-28T22:13:43.252Z,7.30
2018-01-28T22:16:11.142Z,7.30
2018-01-28T22:18:39.370Z,7.20
2018-01-28T22:21:06.859Z,7.10
2018-01-28T22:23:34.346Z,7.10
2018-01-28T22:26:01.838Z,6.90
2018-01-28T22:28:29.291Z,6.90
2018-01-28T22:30:56.797Z,6.90
2018-01-28T22:33:24.292Z,6.80
2018-01-28T22:35:52.511Z,6.70
2018-01-28T22:38:19.965Z,6.60
2018-01-28T22:40:47.417Z,6.60
2018-01-28T22:43:14.884Z,6.50
2018-01-28T22:45:42.389Z,6.50
2018-01-28T22:48:10.588Z,6.70
2018-01-28T22:50:38.045Z,6.60
2018-01-28T22:53:05.556Z,6.70
2018-01-28T22:55:33.793Z,6.60
2018-01-28T22:58:01.282Z,6.40
2018-01-28T23:00:28.781Z,6.30
2018-01-28T23:02:56.232Z,6.20
2018-01-28T23:05:23.724Z,6.10
2018-01-28T23:07:51.199Z,6.00
2018-01-28T23:10:18.703Z,6.00
2018-01-28T23:12:46.152Z,6.00
2018-01-28T23:15:14.404Z,5.80
2018-01-28T23:17:41.867Z,5.80
2018-01-28T23:20:09.312Z,6.00
2018-01-28T23:22:36.765Z,5.80
2018-01-28T23:25:04.271Z,5.80
2018-01-28T23:27:31.726Z,5.70
2018-01-28T23:29:59.177Z,5.50
2018-01-28T23:32:26.620Z,5.60
2018-01-28T23:34:54.073Z,5.60
2018-01-28T23:37:22.294Z,5.50
2018-01-28T23:39:49.759Z,5.40
2018-01-28T23:42:17.208Z,5.30
2018-01-28T23:44:44.670Z,5.30
2018-01-28T23:47:12.124Z,5.20
2018-01-28T23:49:39.584Z,5.20
2018-01-28T23:52:07.041Z,5.20
2018-01-28T23:54:34.510Z,5.10
2018-01-28T23:57:01.961Z,5.00
2018-01-28T23:59:29.435Z,4.90
